CST,Max TemperatureF,Mean TemperatureF,Min TemperatureF,Max Dew PointF,MeanDew PointF,Min DewpointF,Max Humidity, Mean Humidity, Min Humidity, Max Sea Level PressureIn, Mean Sea Level PressureIn, Min Sea Level PressureIn, Max VisibilityMiles, Mean VisibilityMiles, Min VisibilityMiles, Max Wind SpeedMPH, Mean Wind SpeedMPH, Max Gust SpeedMPH,PrecipitationIn, CloudCover, Events, WindDirDegrees
2011-11-1,83,69,55,59,55,49,83,61,35,30.15,30.09,30.02,10,10,4,17,7,23,0.00,1,,128
2011-11-2,86,73,60,68,64,60,100,68,46,30.05,30.00,29.95,10,10,7,21,9,29,0.00,1,,142
2011-11-3,72,62,53,72,38,24,98,48,19,30.38,30.26,30.08,10,10,5,32,13,41,0.02,4,Rain,351
2011-11-4,70,55,40,32,26,19,59,35,15,30.28,30.21,30.10,10,10,10,12,6,,0.00,0,,52
2011-11-5,78,66,53,67,56,37,73,64,48,30.10,29.96,29.86,10,10,10,24,9,30,0.00,5,,117
2011-11-6,83,79,75,69,68,67,80,71,60,29.99,29.94,29.89,10,10,10,24,16,30,0.00,7,,144
2011-11-7,87,82,76,70,67,64,78,64,45,30.01,29.95,29.88,10,10,10,28,17,34,0.00,4,,151
2011-11-8,87,78,69,72,68,64,99,71,47,29.99,29.89,29.85,10,10,10,22,9,25,0.00,3,,160
2011-11-9,73,65,57,55,41,33,70,45,31,30.32,30.19,30.07,10,10,10,23,14,30,0.04,4,Rain-Thunderstorm,356
2011-11-10,68,58,47,48,35,23,84,48,18,30.50,30.40,30.34,10,10,10,15,9,21,0.05,1,Rain,352
2011-11-11,73,54,35,45,33,26,83,49,18,30.35,30.25,30.13,10,10,10,14,3,18,0.00,0,,158
2011-11-12,81,68,54,65,57,49,81,64,48,30.09,30.01,29.94,10,10,10,23,11,31,0.00,2,,157
2011-11-13,87,74,62,71,67,63,100,75,47,29.98,29.90,29.83,10,10,4,23,12,29,0.00,2,,160
2011-11-14,85,76,68,74,70,68,100,79,56,29.91,29.82,29.72,10,8,3,24,11,31,0.00,4,,146
2011-11-15,81,74,64,76,66,57,100,80,44,29.80,29.75,29.70,10,9,4,28,11,33,0.12,4,Rain,245
2011-11-16,90,73,56,59,48,36,85,49,15,30.04,29.88,29.79,10,10,10,17,9,24,0.00,0,,271
2011-11-17,72,64,55,54,45,37,71,55,30,30.39,30.28,30.14,10,10,10,20,14,28,0.00,3,,44
2011-11-18,80,66,53,65,54,43,75,63,46,30.24,30.10,29.99,10,10,10,24,9,26,0.00,4,,95
2011-11-19,89,80,70,76,71,65,100,80,48,29.97,29.91,29.84,10,10,7,28,15,34,0.00,2,,156
2011-11-20,87,81,75,78,74,68,100,84,53,30.06,30.00,29.94,10,10,10,28,17,32,0.00,4,,149
2011-11-21,84,80,76,78,74,71,100,84,65,30.05,29.98,29.87,10,10,10,28,18,33,0.00,8,,151
2011-11-22,85,72,59,77,62,43,100,67,24,30.19,29.99,29.86,10,9,0,20,11,26,0.00,3,Rain,22
2011-11-23,77,62,47,53,50,46,100,68,33,30.32,30.24,30.18,10,10,7,12,6,18,0.00,0,,35
2011-11-24,77,63,49,60,55,46,100,74,46,30.29,30.22,30.16,10,8,1,15,6,20,0.00,1,,51
2011-11-25,84,69,54,65,59,54,100,72,35,30.13,29.99,29.87,10,9,2,22,8,30,0.00,2,,128
2011-11-26,79,70,60,72,60,38,100,69,31,30.21,29.96,29.86,10,10,7,31,8,39,0.00,4,Rain,327
2011-11-27,62,52,38,34,19,7,52,29,12,30.42,30.33,30.27,10,10,10,30,17,40,0.00,0,,318
2011-11-28,75,54,32,24,12,8,53,25,8,30.30,30.18,30.05,10,10,10,12,5,,0.00,0,,280
2011-11-29,78,59,40,48,25,14,57,33,12,30.21,30.11,30.05,10,10,7,17,7,21,0.00,0,,100
2011-11-30,71,56,41,41,33,29,63,42,22,30.27,30.19,30.10,10,10,10,12,6,,0.00,0,,45